createdAt,value
2023-04-25T00:01:40.333Z,97921.97
2023-04-25T00:06:45.545Z,97921.66
2023-04-25T00:11:50.578Z,97921.84
2023-04-25T00:16:59.324Z,97922.59
2023-04-25T00:22:04.427Z,97917.59
2023-04-25T00:27:09.394Z,97924.47
2023-04-25T00:32:16.935Z,97918.66
2023-04-25T00:37:23.300Z,97917.88
2023-04-25T00:42:29.115Z,97921.19
2023-04-25T00:47:37.336Z,97920.72
2023-04-25T00:52:44.645Z,97918.19
2023-04-25T00:57:51.501Z,97907.44
2023-04-25T01:02:59.736Z,97908.38
2023-04-25T01:08:05.513Z,97907.16
2023-04-25T01:13:11.358Z,97904.78
2023-04-25T01:18:19.399Z,97911.06
2023-04-25T01:23:28.861Z,97915.41
2023-04-25T01:28:34.167Z,97906.31
2023-04-25T01:33:41.706Z,97914.63
2023-04-25T01:38:50.233Z,97897.75
2023-04-25T01:43:58.338Z,97909.91
2023-04-25T01:49:03.407Z,97901.38
2023-04-25T01:54:12.323Z,97904.41
2023-04-25T01:59:17.553Z,97895.69
2023-04-25T02:04:41.076Z,97899.94
2023-04-25T02:09:52.221Z,97904.69
2023-04-25T02:14:58.658Z,97902.31
2023-04-25T02:20:18.471Z,97900.78
2023-04-25T02:25:26.572Z,97900.09
2023-04-25T02:30:32.508Z,97896.28
2023-04-25T02:35:37.650Z,97901.53
2023-04-25T02:40:45.553Z,97890.06
2023-04-25T02:45:50.594Z,97898.84
2023-04-25T02:50:56.890Z,97898.00
2023-04-25T02:56:05.776Z,97900.66
2023-04-25T03:01:10.870Z,97893.41
2023-04-25T03:06:16.041Z,97892.34
2023-04-25T03:11:24.199Z,97893.59
2023-04-25T03:16:29.471Z,97890.97
2023-04-25T03:21:35.785Z,97894.72
2023-04-25T03:26:44.601Z,97885.63
2023-04-25T03:31:50.397Z,97896.28
2023-04-25T03:36:55.532Z,97891.50
2023-04-25T03:42:04.127Z,97889.94
2023-04-25T03:47:10.307Z,97884.50
2023-04-25T03:52:16.742Z,97885.03
2023-04-25T03:57:26.388Z,97888.72
2023-04-25T04:02:32.489Z,97894.03
2023-04-25T04:07:40.968Z,97894.75
2023-04-25T04:12:52.471Z,97894.19
2023-04-25T04:17:57.702Z,97894.31
2023-04-25T04:23:03.310Z,97883.03
2023-04-25T04:28:12.308Z,97896.97
2023-04-25T04:33:30.813Z,97903.47
2023-04-25T04:38:42.151Z,97899.56
2023-04-25T04:43:56.022Z,97902.09
2023-04-25T04:49:18.702Z,97904.97
2023-04-25T04:54:37.696Z,97902.72
2023-04-25T05:00:12.168Z,97907.31
2023-04-25T05:05:36.205Z,97912.84
2023-04-25T05:11:00.086Z,97899.44
2023-04-25T05:16:16.730Z,97900.84
2023-04-25T05:21:34.429Z,97901.28
2023-04-25T05:26:52.492Z,97907.50
2023-04-25T05:32:03.001Z,97909.81
2023-04-25T05:37:11.360Z,97902.88
2023-04-25T05:42:37.059Z,97902.44
2023-04-25T05:48:04.237Z,97893.91
2023-04-25T05:53:36.978Z,97905.63
2023-04-25T05:58:42.684Z,97900.81
2023-04-25T06:03:54.244Z,97905.06
2023-04-25T06:09:08.208Z,97902.53
2023-04-25T06:14:18.652Z,97908.22
2023-04-25T06:19:30.401Z,97910.63
2023-04-25T06:24:45.344Z,97909.72
2023-04-25T06:29:50.839Z,97912.94
2023-04-25T06:34:58.632Z,97916.66
2023-04-25T06:40:04.045Z,97907.75
2023-04-25T06:45:10.551Z,97910.56
2023-04-25T06:50:18.318Z,97904.78
2023-04-25T06:55:23.971Z,97901.50
2023-04-25T07:01:16.892Z,97905.75
2023-04-25T07:06:29.675Z,97908.50
2023-04-25T07:11:34.905Z,97913.88
2023-04-25T07:16:40.115Z,97916.59
2023-04-25T07:21:47.978Z,97920.59
2023-04-25T07:26:54.888Z,97916.78
2023-04-25T07:32:10.039Z,97923.09
2023-04-25T07:37:20.969Z,97932.06
2023-04-25T07:42:45.757Z,97935.69
2023-04-25T07:47:55.140Z,97933.31
2023-04-25T07:53:06.488Z,97924.38
2023-04-25T07:58:32.267Z,97936.50
2023-04-25T08:03:44.245Z,97924.88
2023-04-25T08:09:05.311Z,97924.69
2023-04-25T08:14:18.069Z,97944.53
2023-04-25T08:19:26.476Z,97949.44
2023-04-25T08:24:35.669Z,97947.75
2023-04-25T08:29:45.316Z,97955.13
2023-04-25T08:34:53.337Z,97966.59
2023-04-25T08:40:04.169Z,97967.56
2023-04-25T08:45:26.276Z,97968.56
2023-04-25T08:50:32.035Z,97976.66
2023-04-25T08:55:41.687Z,97978.47
2023-04-25T09:00:51.452Z,97986.00
2023-04-25T09:06:03.511Z,97996.88
2023-04-25T09:11:13.703Z,97999.56
2023-04-25T09:16:23.346Z,98007.44
2023-04-25T09:21:52.619Z,97997.84
2023-04-25T09:27:02.779Z,98015.59
2023-04-25T09:32:32.418Z,98024.53
2023-04-25T09:37:38.313Z,98025.38
2023-04-25T09:43:04.640Z,98028.91
2023-04-25T09:48:10.279Z,98036.13
2023-04-25T09:53:21.862Z,98032.34
2023-04-25T09:58:52.593Z,98044.84
2023-04-25T10:04:05.091Z,98038.81
2023-04-25T10:09:44.238Z,98041.50
2023-04-25T10:14:52.524Z,98049.19
2023-04-25T10:19:59.122Z,98047.13
2023-04-25T10:25:09.596Z,98050.66
2023-04-25T10:30:19.494Z,98062.00
2023-04-25T10:35:29.446Z,98059.44
2023-04-25T10:40:35.128Z,98063.53
2023-04-25T10:46:03.187Z,98053.47
2023-04-25T10:51:12.632Z,98061.19
2023-04-25T10:56:23.188Z,98069.69
2023-04-25T11:01:39.524Z,98062.97
2023-04-25T11:06:58.239Z,98068.44
2023-04-25T11:12:18.879Z,98078.13
2023-04-25T11:17:30.547Z,98081.72
2023-04-25T11:22:38.286Z,98091.09
2023-04-25T11:27:54.346Z,98100.50
2023-04-25T11:33:04.074Z,98116.31
2023-04-25T11:38:12.375Z,98123.19
2023-04-25T11:43:19.517Z,98133.75
2023-04-25T11:48:31.363Z,98131.28
2023-04-25T11:53:37.600Z,98144.50
2023-04-25T11:59:00.193Z,98141.31
2023-04-25T12:04:18.355Z,98151.47
2023-04-25T12:09:34.209Z,98147.22
2023-04-25T12:14:40.129Z,98137.47
2023-04-25T12:19:50.871Z,98133.03
2023-04-25T12:24:58.020Z,98135.78
2023-04-25T12:30:06.168Z,98133.81
2023-04-25T12:35:16.151Z,98146.31
2023-04-25T12:40:23.614Z,98156.59
2023-04-25T12:45:31.303Z,98144.44
2023-04-25T12:50:38.987Z,98147.56
2023-04-25T12:55:47.843Z,98151.31
2023-04-25T13:01:00.639Z,98146.16
2023-04-25T13:06:12.125Z,98143.47
2023-04-25T13:11:17.894Z,98151.56
2023-04-25T13:16:25.871Z,98163.81
2023-04-25T13:21:35.005Z,98166.09
2023-04-25T13:26:40.213Z,98167.91
2023-04-25T13:31:46.218Z,98167.28
2023-04-25T13:36:56.858Z,98169.00
2023-04-25T13:42:03.148Z,98178.25
2023-04-25T13:47:08.573Z,98174.00
2023-04-25T13:52:17.932Z,98189.47
2023-04-25T13:57:23.567Z,98196.38
2023-04-25T14:02:28.941Z,98198.44
2023-04-25T14:07:38.235Z,98203.88
2023-04-25T14:12:44.445Z,98207.63
2023-04-25T14:17:50.842Z,98211.09
2023-04-25T14:23:01.867Z,98212.06
2023-04-25T14:28:07.482Z,98211.41
2023-04-25T14:33:12.771Z,98216.91
2023-04-25T14:38:24.522Z,98214.06
2023-04-25T14:43:41.434Z,98208.75
2023-04-25T14:48:46.866Z,98222.69
2023-04-25T14:53:54.729Z,98232.72
2023-04-25T14:59:00.434Z,98229.59
2023-04-25T15:04:08.071Z,98233.63
2023-04-25T15:09:19.336Z,98226.44
2023-04-25T15:14:24.630Z,98234.75
2023-04-25T15:19:30.725Z,98236.94
2023-04-25T15:24:38.717Z,98244.25
2023-04-25T15:29:50.492Z,98243.19
2023-04-25T15:34:58.504Z,98239.72
2023-04-25T15:40:13.821Z,98244.78
2023-04-25T15:45:19.656Z,98254.56
2023-04-25T15:50:25.240Z,98262.28
2023-04-25T15:55:34.138Z,98260.63
2023-04-25T16:00:40.714Z,98257.44
2023-04-25T16:05:46.247Z,98264.16
2023-04-25T16:10:54.105Z,98258.66
2023-04-25T16:16:00.415Z,98259.94
2023-04-25T16:21:06.745Z,98256.06
2023-04-25T16:26:14.936Z,98269.19
2023-04-25T16:31:20.143Z,98260.47
2023-04-25T16:36:25.457Z,98261.91
2023-04-25T16:41:33.485Z,98264.13
2023-04-25T16:46:38.928Z,98280.81
2023-04-25T16:51:44.307Z,98281.94
2023-04-25T16:56:52.787Z,98281.06
2023-04-25T17:02:00.550Z,98285.41
2023-04-25T17:07:05.803Z,98299.31
2023-04-25T17:12:14.382Z,98307.53
2023-04-25T17:17:21.562Z,98311.84
2023-04-25T17:22:27.781Z,98313.31
2023-04-25T17:27:36.355Z,98327.03
2023-04-25T17:32:45.313Z,98328.81
2023-04-25T17:37:51.660Z,98329.88
2023-04-25T17:42:59.450Z,98332.69
2023-04-25T17:48:04.793Z,98334.38
2023-04-25T17:53:10.298Z,98345.88
2023-04-25T17:58:18.266Z,98359.91
2023-04-25T18:03:23.544Z,98366.56
2023-04-25T18:08:31.511Z,98367.78
2023-04-25T18:13:53.500Z,98371.06
2023-04-25T18:19:05.622Z,98374.31
2023-04-25T18:24:14.093Z,98381.13
2023-04-25T18:29:35.767Z,98385.63
2023-04-25T18:34:50.369Z,98384.25
2023-04-25T18:39:58.740Z,98390.31
2023-04-25T18:45:08.353Z,98400.34
2023-04-25T18:50:20.481Z,98409.09
2023-04-25T18:55:28.141Z,98410.47
2023-04-25T19:00:39.372Z,98418.03
2023-04-25T19:05:46.951Z,98426.56
2023-04-25T19:10:53.819Z,98427.25
2023-04-25T19:16:01.717Z,98426.84
2023-04-25T19:21:11.474Z,98427.78
2023-04-25T19:26:18.608Z,98432.41
2023-04-25T19:31:27.736Z,98441.03
2023-04-25T19:36:35.737Z,98432.81
2023-04-25T19:41:41.801Z,98441.47
2023-04-25T19:46:49.840Z,98448.75
2023-04-25T19:51:56.386Z,98451.50
2023-04-25T19:57:01.955Z,98457.16
2023-04-25T20:02:11.629Z,98458.50
2023-04-25T20:07:18.464Z,98458.34
2023-04-25T20:12:23.739Z,98461.06
2023-04-25T20:17:32.697Z,98464.56
2023-04-25T20:22:40.728Z,98469.13
2023-04-25T20:27:53.429Z,98477.47
2023-04-25T20:33:09.530Z,98479.56
2023-04-25T20:38:14.747Z,98476.47
2023-04-25T20:43:20.528Z,98486.09
2023-04-25T20:48:28.237Z,98483.91
2023-04-25T20:53:34.886Z,98487.28
2023-04-25T20:58:44.619Z,98480.75
2023-04-25T21:03:54.715Z,98487.16
2023-04-25T21:08:59.904Z,98484.13
2023-04-25T21:14:05.513Z,98496.22
2023-04-25T21:19:14.202Z,98495.50
2023-04-25T21:24:22.287Z,98497.13
2023-04-25T21:29:28.184Z,98501.38
2023-04-25T21:34:36.042Z,98495.19
2023-04-25T21:39:41.481Z,98502.53
2023-04-25T21:44:49.585Z,98497.81
2023-04-25T21:49:59.244Z,98498.66
2023-04-25T21:55:07.132Z,98512.00
2023-04-25T22:00:21.264Z,98509.56
2023-04-25T22:05:29.620Z,98516.38
2023-04-25T22:10:34.950Z,98519.81
2023-04-25T22:15:42.607Z,98523.13
2023-04-25T22:20:50.348Z,98521.28
2023-04-25T22:26:02.805Z,98526.53
2023-04-25T22:31:11.169Z,98537.34
2023-04-25T22:36:20.150Z,98541.28
2023-04-25T22:41:25.302Z,98534.47
2023-04-25T22:46:31.677Z,98547.44
2023-04-25T22:51:39.373Z,98548.78
2023-04-25T22:56:45.432Z,98548.28
2023-04-25T23:01:51.649Z,98551.81
2023-04-25T23:07:01.918Z,98560.72
2023-04-25T23:12:07.273Z,98556.50
2023-04-25T23:17:12.388Z,98558.41
2023-04-25T23:22:20.003Z,98573.34
2023-04-25T23:27:27.338Z,98565.34
2023-04-25T23:32:32.642Z,98565.81
2023-04-25T23:37:43.424Z,98574.66
2023-04-25T23:42:48.495Z,98574.59
2023-04-25T23:47:53.731Z,98593.50
2023-04-25T23:53:01.566Z,98589.38
2023-04-25T23:58:06.596Z,98587.38
